sensor_id;sensor_type;location;lat;lon;timestamp;P1;durP1;ratioP1;P2;durP2;ratioP2
1344;SDS011;15375;48.540;9.268;2023-08-21T00:02:19;13.60;;;12.50;;
1344;SDS011;15375;48.540;9.268;2023-08-21T00:04:44;18.90;;;12.50;;
1344;SDS011;15375;48.540;9.268;2023-08-21T00:07:10;13.80;;;12.57;;
1344;SDS011;15375;48.540;9.268;2023-08-21T00:09:36;13.33;;;12.13;;
1344;SDS011;15375;48.540;9.268;2023-08-21T00:12:02;13.87;;;12.67;;
1344;SDS011;15375;48.540;9.268;2023-08-21T00:14:27;12.73;;;11.50;;
1344;SDS011;15375;48.540;9.268;2023-08-21T00:16:53;13.13;;;11.97;;
1344;SDS011;15375;48.540;9.268;2023-08-21T00:19:18;16.80;;;11.57;;
1344;SDS011;15375;48.540;9.268;2023-08-21T00:21:43;16.70;;;12.47;;
1344;SDS011;15375;48.540;9.268;2023-08-21T00:24:09;14.87;;;13.37;;
1344;SDS011;15375;48.540;9.268;2023-08-21T00:26:34;14.50;;;13.20;;
1344;SDS011;15375;48.540;9.268;2023-08-21T00:28:59;13.03;;;11.90;;
1344;SDS011;15375;48.540;9.268;2023-08-21T00:31:25;12.67;;;11.57;;
1344;SDS011;15375;48.540;9.268;2023-08-21T00:33:50;13.77;;;12.47;;
1344;SDS011;15375;48.540;9.268;2023-08-21T00:36:15;16.83;;;15.23;;
1344;SDS011;15375;48.540;9.268;2023-08-21T00:38:41;13.67;;;12.33;;
1344;SDS011;15375;48.540;9.268;2023-08-21T00:41:06;13.20;;;11.97;;
1344;SDS011;15375;48.540;9.268;2023-08-21T00:43:32;14.03;;;12.60;;
1344;SDS011;15375;48.540;9.268;2023-08-21T00:45:57;13.67;;;12.30;;
1344;SDS011;15375;48.540;9.268;2023-08-21T00:48:22;12.90;;;11.73;;
1344;SDS011;15375;48.540;9.268;2023-08-21T00:50:48;13.10;;;12.03;;
1344;SDS011;15375;48.540;9.268;2023-08-21T00:53:14;15.80;;;13.20;;
1344;SDS011;15375;48.540;9.268;2023-08-21T00:55:40;13.90;;;12.70;;
1344;SDS011;15375;48.540;9.268;2023-08-21T00:58:05;14.90;;;13.50;;
1344;SDS011;15375;48.540;9.268;2023-08-21T01:00:31;13.13;;;11.93;;
1344;SDS011;15375;48.540;9.268;2023-08-21T01:02:58;13.10;;;11.77;;
1344;SDS011;15375;48.540;9.268;2023-08-21T01:05:23;12.20;;;11.00;;
1344;SDS011;15375;48.540;9.268;2023-08-21T01:08:00;12.60;;;11.50;;
1344;SDS011;15375;48.540;9.268;2023-08-21T01:10:52;12.97;;;11.30;;
1344;SDS011;15375;48.540;9.268;2023-08-21T01:16:17;12.30;;;11.40;;
1344;SDS011;15375;48.540;9.268;2023-08-21T01:18:44;13.67;;;12.27;;
1344;SDS011;15375;48.540;9.268;2023-08-21T01:21:13;13.07;;;11.77;;
1344;SDS011;15375;48.540;9.268;2023-08-21T01:23:40;12.67;;;11.57;;
1344;SDS011;15375;48.540;9.268;2023-08-21T01:26:09;13.50;;;12.10;;
1344;SDS011;15375;48.540;9.268;2023-08-21T01:28:34;13.33;;;12.00;;
1344;SDS011;15375;48.540;9.268;2023-08-21T01:31:02;11.67;;;10.70;;
1344;SDS011;15375;48.540;9.268;2023-08-21T01:33:33;14.07;;;12.80;;
1344;SDS011;15375;48.540;9.268;2023-08-21T01:36:00;15.47;;;12.27;;
1344;SDS011;15375;48.540;9.268;2023-08-21T01:38:29;14.73;;;12.13;;
1344;SDS011;15375;48.540;9.268;2023-08-21T01:40:58;13.33;;;12.17;;
1344;SDS011;15375;48.540;9.268;2023-08-21T01:43:23;13.73;;;11.40;;
1344;SDS011;15375;48.540;9.268;2023-08-21T01:45:49;12.87;;;11.77;;
1344;SDS011;15375;48.540;9.268;2023-08-21T01:48:14;13.10;;;11.80;;
1344;SDS011;15375;48.540;9.268;2023-08-21T01:50:40;13.10;;;11.80;;
1344;SDS011;15375;48.540;9.268;2023-08-21T01:53:05;13.80;;;12.70;;
1344;SDS011;15375;48.540;9.268;2023-08-21T01:55:30;18.13;;;13.10;;
1344;SDS011;15375;48.540;9.268;2023-08-21T01:57:57;15.63;;;12.70;;
1344;SDS011;15375;48.540;9.268;2023-08-21T02:00:22;14.30;;;12.47;;
1344;SDS011;15375;48.540;9.268;2023-08-21T02:02:48;13.90;;;12.20;;
1344;SDS011;15375;48.540;9.268;2023-08-21T02:05:13;13.00;;;11.70;;
1344;SDS011;15375;48.540;9.268;2023-08-21T02:07:38;13.60;;;12.40;;
1344;SDS011;15375;48.540;9.268;2023-08-21T02:10:04;13.77;;;12.33;;
1344;SDS011;15375;48.540;9.268;2023-08-21T02:12:30;12.70;;;11.50;;
1344;SDS011;15375;48.540;9.268;2023-08-21T02:14:55;13.20;;;11.90;;
1344;SDS011;15375;48.540;9.268;2023-08-21T02:17:20;13.00;;;11.70;;
1344;SDS011;15375;48.540;9.268;2023-08-21T02:19:46;14.47;;;13.17;;
1344;SDS011;15375;48.540;9.268;2023-08-21T02:22:11;13.00;;;11.80;;
1344;SDS011;15375;48.540;9.268;2023-08-21T02:24:36;13.13;;;11.83;;
1344;SDS011;15375;48.540;9.268;2023-08-21T02:27:03;13.10;;;11.90;;
1344;SDS011;15375;48.540;9.268;2023-08-21T02:29:28;13.63;;;12.43;;
1344;SDS011;15375;48.540;9.268;2023-08-21T02:31:54;12.93;;;11.63;;
1344;SDS011;15375;48.540;9.268;2023-08-21T02:34:19;13.33;;;12.00;;
1344;SDS011;15375;48.540;9.268;2023-08-21T02:36:44;12.30;;;11.20;;
1344;SDS011;15375;48.540;9.268;2023-08-21T02:39:10;14.83;;;11.47;;
1344;SDS011;15375;48.540;9.268;2023-08-21T02:41:35;14.70;;;12.87;;
1344;SDS011;15375;48.540;9.268;2023-08-21T02:44:00;12.97;;;11.87;;
1344;SDS011;15375;48.540;9.268;2023-08-21T02:46:26;13.70;;;11.53;;
1344;SDS011;15375;48.540;9.268;2023-08-21T02:48:51;13.40;;;12.10;;
1344;SDS011;15375;48.540;9.268;2023-08-21T02:51:16;14.50;;;12.50;;
1344;SDS011;15375;48.540;9.268;2023-08-21T02:53:42;14.00;;;12.70;;
1344;SDS011;15375;48.540;9.268;2023-08-21T02:56:07;13.17;;;11.87;;
1344;SDS011;15375;48.540;9.268;2023-08-21T02:58:32;12.83;;;11.77;;
1344;SDS011;15375;48.540;9.268;2023-08-21T03:00:58;13.90;;;12.50;;
1344;SDS011;15375;48.540;9.268;2023-08-21T03:03:23;13.30;;;12.10;;
1344;SDS011;15375;48.540;9.268;2023-08-21T03:05:48;14.53;;;13.13;;
1344;SDS011;15375;48.540;9.268;2023-08-21T03:08:14;15.10;;;13.50;;
1344;SDS011;15375;48.540;9.268;2023-08-21T03:10:39;17.03;;;13.30;;
1344;SDS011;15375;48.540;9.268;2023-08-21T03:13:04;16.50;;;13.87;;
1344;SDS011;15375;48.540;9.268;2023-08-21T03:15:29;12.67;;;11.40;;
1344;SDS011;15375;48.540;9.268;2023-08-21T03:17:55;13.67;;;12.27;;
1344;SDS011;15375;48.540;9.268;2023-08-21T03:20:20;14.17;;;12.87;;
1344;SDS011;15375;48.540;9.268;2023-08-21T03:22:46;14.13;;;12.73;;
1344;SDS011;15375;48.540;9.268;2023-08-21T03:25:11;13.10;;;11.90;;
1344;SDS011;15375;48.540;9.268;2023-08-21T03:27:37;13.20;;;12.07;;
1344;SDS011;15375;48.540;9.268;2023-08-21T03:30:05;13.63;;;12.30;;
1344;SDS011;15375;48.540;9.268;2023-08-21T03:32:31;14.23;;;11.90;;
1344;SDS011;15375;48.540;9.268;2023-08-21T03:34:57;14.07;;;12.67;;
1344;SDS011;15375;48.540;9.268;2023-08-21T03:37:23;13.40;;;12.20;;
1344;SDS011;15375;48.540;9.268;2023-08-21T03:39:48;14.50;;;13.03;;
1344;SDS011;15375;48.540;9.268;2023-08-21T03:42:13;13.40;;;12.20;;
1344;SDS011;15375;48.540;9.268;2023-08-21T03:44:39;13.13;;;12.03;;
1344;SDS011;15375;48.540;9.268;2023-08-21T03:47:04;13.20;;;11.90;;
1344;SDS011;15375;48.540;9.268;2023-08-21T03:49:30;13.30;;;12.20;;
1344;SDS011;15375;48.540;9.268;2023-08-21T03:51:55;13.80;;;12.50;;
1344;SDS011;15375;48.540;9.268;2023-08-21T03:54:21;13.40;;;11.40;;
1344;SDS011;15375;48.540;9.268;2023-08-21T03:56:46;14.10;;;11.00;;
1344;SDS011;15375;48.540;9.268;2023-08-21T03:59:11;13.83;;;12.40;;
1344;SDS011;15375;48.540;9.268;2023-08-21T04:01:37;13.13;;;11.77;;
1344;SDS011;15375;48.540;9.268;2023-08-21T04:04:02;13.60;;;12.20;;
1344;SDS011;15375;48.540;9.268;2023-08-21T04:06:28;13.67;;;11.33;;
1344;SDS011;15375;48.540;9.268;2023-08-21T04:08:53;13.63;;;11.67;;
1344;SDS011;15375;48.540;9.268;2023-08-21T04:11:18;16.77;;;12.00;;
1344;SDS011;15375;48.540;9.268;2023-08-21T04:13:44;12.10;;;11.17;;
1344;SDS011;15375;48.540;9.268;2023-08-21T04:16:09;12.23;;;11.00;;
1344;SDS011;15375;48.540;9.268;2023-08-21T04:18:35;13.77;;;12.53;;
1344;SDS011;15375;48.540;9.268;2023-08-21T04:21:02;14.40;;;12.23;;
1344;SDS011;15375;48.540;9.268;2023-08-21T04:23:27;14.07;;;12.70;;
1344;SDS011;15375;48.540;9.268;2023-08-21T04:25:52;14.23;;;12.90;;
1344;SDS011;15375;48.540;9.268;2023-08-21T04:28:18;14.93;;;13.10;;
1344;SDS011;15375;48.540;9.268;2023-08-21T04:30:43;17.47;;;13.23;;
1344;SDS011;15375;48.540;9.268;2023-08-21T04:33:08;13.40;;;12.20;;
1344;SDS011;15375;48.540;9.268;2023-08-21T04:35:40;15.23;;;13.03;;
1344;SDS011;15375;48.540;9.268;2023-08-21T04:38:05;13.30;;;12.00;;
1344;SDS011;15375;48.540;9.268;2023-08-21T04:40:32;11.87;;;10.87;;
1344;SDS011;15375;48.540;9.268;2023-08-21T04:42:57;13.83;;;12.63;;
1344;SDS011;15375;48.540;9.268;2023-08-21T04:45:23;14.53;;;12.53;;
1344;SDS011;15375;48.540;9.268;2023-08-21T04:47:48;18.57;;;13.63;;
1344;SDS011;15375;48.540;9.268;2023-08-21T04:50:13;14.10;;;12.67;;
1344;SDS011;15375;48.540;9.268;2023-08-21T04:52:40;13.53;;;12.37;;
1344;SDS011;15375;48.540;9.268;2023-08-21T04:55:06;13.07;;;11.70;;
1344;SDS011;15375;48.540;9.268;2023-08-21T04:57:32;14.47;;;12.97;;
1344;SDS011;15375;48.540;9.268;2023-08-21T04:59:57;13.20;;;11.93;;
1344;SDS011;15375;48.540;9.268;2023-08-21T05:02:22;15.40;;;14.00;;
1344;SDS011;15375;48.540;9.268;2023-08-21T05:04:48;14.47;;;13.27;;
1344;SDS011;15375;48.540;9.268;2023-08-21T05:07:13;17.10;;;12.83;;
1344;SDS011;15375;48.540;9.268;2023-08-21T05:09:38;13.77;;;12.37;;
1344;SDS011;15375;48.540;9.268;2023-08-21T05:12:05;14.10;;;12.33;;
1344;SDS011;15375;48.540;9.268;2023-08-21T05:14:30;16.60;;;13.33;;
1344;SDS011;15375;48.540;9.268;2023-08-21T05:16:56;13.63;;;12.43;;
1344;SDS011;15375;48.540;9.268;2023-08-21T05:19:21;14.03;;;12.73;;
1344;SDS011;15375;48.540;9.268;2023-08-21T05:21:46;13.97;;;12.67;;
1344;SDS011;15375;48.540;9.268;2023-08-21T05:24:12;12.37;;;11.27;;
1344;SDS011;15375;48.540;9.268;2023-08-21T05:26:37;13.60;;;12.37;;
1344;SDS011;15375;48.540;9.268;2023-08-21T05:29:03;13.93;;;12.53;;
1344;SDS011;15375;48.540;9.268;2023-08-21T05:31:29;14.37;;;12.57;;
1344;SDS011;15375;48.540;9.268;2023-08-21T05:33:54;13.13;;;11.73;;
1344;SDS011;15375;48.540;9.268;2023-08-21T05:36:20;12.27;;;11.03;;
1344;SDS011;15375;48.540;9.268;2023-08-21T05:38:45;11.73;;;10.37;;
1344;SDS011;15375;48.540;9.268;2023-08-21T05:41:12;10.70;;;9.70;;
1344;SDS011;15375;48.540;9.268;2023-08-21T05:43:38;9.40;;;8.70;;
1344;SDS011;15375;48.540;9.268;2023-08-21T05:46:05;10.93;;;9.93;;
1344;SDS011;15375;48.540;9.268;2023-08-21T05:48:31;10.20;;;9.30;;
1344;SDS011;15375;48.540;9.268;2023-08-21T05:50:56;10.57;;;9.67;;
1344;SDS011;15375;48.540;9.268;2023-08-21T05:53:22;10.70;;;9.80;;
1344;SDS011;15375;48.540;9.268;2023-08-21T05:55:47;12.13;;;11.03;;
1344;SDS011;15375;48.540;9.268;2023-08-21T05:58:13;10.37;;;9.57;;
1344;SDS011;15375;48.540;9.268;2023-08-21T06:00:38;10.87;;;10.03;;
1344;SDS011;15375;48.540;9.268;2023-08-21T06:03:04;11.90;;;10.67;;
1344;SDS011;15375;48.540;9.268;2023-08-21T06:05:30;11.07;;;9.73;;
1344;SDS011;15375;48.540;9.268;2023-08-21T06:07:55;10.83;;;10.03;;
1344;SDS011;15375;48.540;9.268;2023-08-21T06:10:21;10.43;;;9.73;;
1344;SDS011;15375;48.540;9.268;2023-08-21T06:12:46;9.87;;;9.07;;
1344;SDS011;15375;48.540;9.268;2023-08-21T06:15:13;11.70;;;10.47;;
1344;SDS011;15375;48.540;9.268;2023-08-21T06:17:38;12.53;;;9.90;;
1344;SDS011;15375;48.540;9.268;2023-08-21T06:20:04;22.70;;;10.93;;
1344;SDS011;15375;48.540;9.268;2023-08-21T06:22:31;12.80;;;10.10;;
1344;SDS011;15375;48.540;9.268;2023-08-21T06:24:56;11.70;;;10.50;;
1344;SDS011;15375;48.540;9.268;2023-08-21T06:27:22;11.43;;;10.20;;
1344;SDS011;15375;48.540;9.268;2023-08-21T06:29:47;12.40;;;11.40;;
1344;SDS011;15375;48.540;9.268;2023-08-21T06:32:12;11.70;;;10.43;;
1344;SDS011;15375;48.540;9.268;2023-08-21T06:34:38;11.40;;;10.60;;
1344;SDS011;15375;48.540;9.268;2023-08-21T06:37:03;12.27;;;11.17;;
1344;SDS011;15375;48.540;9.268;2023-08-21T06:39:29;19.03;;;11.77;;
1344;SDS011;15375;48.540;9.268;2023-08-21T06:41:54;11.57;;;10.73;;
1344;SDS011;15375;48.540;9.268;2023-08-21T06:44:19;12.47;;;10.20;;
1344;SDS011;15375;48.540;9.268;2023-08-21T06:46:45;12.57;;;11.30;;
1344;SDS011;15375;48.540;9.268;2023-08-21T06:49:10;13.13;;;11.80;;
1344;SDS011;15375;48.540;9.268;2023-08-21T06:51:36;11.50;;;10.67;;
1344;SDS011;15375;48.540;9.268;2023-08-21T06:54:01;14.00;;;11.43;;
1344;SDS011;15375;48.540;9.268;2023-08-21T06:56:26;11.47;;;10.67;;
1344;SDS011;15375;48.540;9.268;2023-08-21T06:58:52;11.53;;;10.60;;
1344;SDS011;15375;48.540;9.268;2023-08-21T07:01:17;13.00;;;11.90;;
1344;SDS011;15375;48.540;9.268;2023-08-21T07:03:42;11.73;;;10.87;;
1344;SDS011;15375;48.540;9.268;2023-08-21T07:06:08;12.40;;;11.30;;
1344;SDS011;15375;48.540;9.268;2023-08-21T07:08:33;12.23;;;11.23;;
1344;SDS011;15375;48.540;9.268;2023-08-21T07:11:01;11.83;;;10.73;;
1344;SDS011;15375;48.540;9.268;2023-08-21T07:13:27;12.13;;;11.10;;
1344;SDS011;15375;48.540;9.268;2023-08-21T07:15:52;13.07;;;11.73;;
1344;SDS011;15375;48.540;9.268;2023-08-21T07:18:19;12.30;;;11.40;;
1344;SDS011;15375;48.540;9.268;2023-08-21T07:20:45;11.20;;;10.40;;
1344;SDS011;15375;48.540;9.268;2023-08-21T07:23:20;12.40;;;11.40;;
1344;SDS011;15375;48.540;9.268;2023-08-21T07:25:46;12.10;;;11.10;;
1344;SDS011;15375;48.540;9.268;2023-08-21T07:28:11;13.50;;;11.90;;
1344;SDS011;15375;48.540;9.268;2023-08-21T07:30:37;13.17;;;12.07;;
1344;SDS011;15375;48.540;9.268;2023-08-21T07:33:03;12.57;;;11.57;;
1344;SDS011;15375;48.540;9.268;2023-08-21T07:35:30;13.30;;;12.10;;
1344;SDS011;15375;48.540;9.268;2023-08-21T07:37:55;12.87;;;11.97;;
1344;SDS011;15375;48.540;9.268;2023-08-21T07:40:21;13.07;;;11.77;;
1344;SDS011;15375;48.540;9.268;2023-08-21T07:42:46;13.27;;;12.20;;
1344;SDS011;15375;48.540;9.268;2023-08-21T07:45:11;12.13;;;10.87;;
1344;SDS011;15375;48.540;9.268;2023-08-21T07:47:37;13.53;;;12.43;;
1344;SDS011;15375;48.540;9.268;2023-08-21T07:50:02;12.30;;;11.40;;
1344;SDS011;15375;48.540;9.268;2023-08-21T07:52:28;11.53;;;10.67;;
1344;SDS011;15375;48.540;9.268;2023-08-21T07:54:54;12.30;;;11.30;;
1344;SDS011;15375;48.540;9.268;2023-08-21T07:57:19;14.90;;;12.00;;
1344;SDS011;15375;48.540;9.268;2023-08-21T07:59:45;12.37;;;11.33;;
1344;SDS011;15375;48.540;9.268;2023-08-21T08:02:10;11.70;;;10.83;;
1344;SDS011;15375;48.540;9.268;2023-08-21T08:04:37;12.77;;;11.57;;
1344;SDS011;15375;48.540;9.268;2023-08-21T08:07:03;12.20;;;11.10;;
1344;SDS011;15375;48.540;9.268;2023-08-21T08:09:28;12.60;;;11.50;;
1344;SDS011;15375;48.540;9.268;2023-08-21T08:11:54;12.90;;;11.70;;
1344;SDS011;15375;48.540;9.268;2023-08-21T08:14:19;13.47;;;12.30;;
1344;SDS011;15375;48.540;9.268;2023-08-21T08:16:45;13.10;;;11.97;;
1344;SDS011;15375;48.540;9.268;2023-08-21T08:19:10;14.47;;;13.47;;
1344;SDS011;15375;48.540;9.268;2023-08-21T08:21:35;12.80;;;11.63;;
1344;SDS011;15375;48.540;9.268;2023-08-21T08:24:01;12.63;;;11.73;;
1344;SDS011;15375;48.540;9.268;2023-08-21T08:26:27;11.10;;;10.00;;
1344;SDS011;15375;48.540;9.268;2023-08-21T08:28:52;11.50;;;10.43;;
1344;SDS011;15375;48.540;9.268;2023-08-21T08:31:17;14.20;;;11.47;;
1344;SDS011;15375;48.540;9.268;2023-08-21T08:33:43;12.27;;;11.20;;
1344;SDS011;15375;48.540;9.268;2023-08-21T08:36:09;12.83;;;11.70;;
1344;SDS011;15375;48.540;9.268;2023-08-21T08:38:34;12.47;;;11.53;;
1344;SDS011;15375;48.540;9.268;2023-08-21T08:41:01;12.93;;;11.80;;
1344;SDS011;15375;48.540;9.268;2023-08-21T08:43:27;12.43;;;11.23;;
1344;SDS011;15375;48.540;9.268;2023-08-21T08:45:54;12.43;;;11.47;;
1344;SDS011;15375;48.540;9.268;2023-08-21T08:48:23;14.20;;;11.20;;
1344;SDS011;15375;48.540;9.268;2023-08-21T08:50:49;13.40;;;11.30;;
1344;SDS011;15375;48.540;9.268;2023-08-21T08:53:16;12.30;;;11.30;;
1344;SDS011;15375;48.540;9.268;2023-08-21T08:55:43;12.57;;;11.70;;
1344;SDS011;15375;48.540;9.268;2023-08-21T08:58:09;12.40;;;11.43;;
1344;SDS011;15375;48.540;9.268;2023-08-21T09:00:35;13.10;;;12.00;;
1344;SDS011;15375;48.540;9.268;2023-08-21T09:03:00;12.60;;;11.30;;
1344;SDS011;15375;48.540;9.268;2023-08-21T09:05:26;12.83;;;11.83;;
1344;SDS011;15375;48.540;9.268;2023-08-21T09:08:09;12.20;;;11.17;;
1344;SDS011;15375;48.540;9.268;2023-08-21T09:10:36;13.03;;;11.83;;
1344;SDS011;15375;48.540;9.268;2023-08-21T09:13:16;13.43;;;12.10;;
1344;SDS011;15375;48.540;9.268;2023-08-21T09:15:47;11.47;;;10.37;;
1344;SDS011;15375;48.540;9.268;2023-08-21T09:18:14;12.33;;;11.33;;
1344;SDS011;15375;48.540;9.268;2023-08-21T09:20:40;11.40;;;10.40;;
1344;SDS011;15375;48.540;9.268;2023-08-21T09:23:07;12.10;;;10.83;;
1344;SDS011;15375;48.540;9.268;2023-08-21T09:25:37;13.03;;;11.90;;
1344;SDS011;15375;48.540;9.268;2023-08-21T09:28:07;12.37;;;11.10;;
1344;SDS011;15375;48.540;9.268;2023-08-21T09:30:43;11.90;;;11.00;;
1344;SDS011;15375;48.540;9.268;2023-08-21T09:33:22;12.33;;;11.33;;
1344;SDS011;15375;48.540;9.268;2023-08-21T09:35:49;11.97;;;10.93;;
1344;SDS011;15375;48.540;9.268;2023-08-21T09:38:17;11.73;;;10.83;;
1344;SDS011;15375;48.540;9.268;2023-08-21T09:40:49;12.00;;;11.10;;
1344;SDS011;15375;48.540;9.268;2023-08-21T09:43:17;12.53;;;11.47;;
1344;SDS011;15375;48.540;9.268;2023-08-21T09:45:45;12.67;;;11.57;;
1344;SDS011;15375;48.540;9.268;2023-08-21T09:48:11;11.77;;;10.70;;
1344;SDS011;15375;48.540;9.268;2023-08-21T09:50:38;10.50;;;9.57;;
1344;SDS011;15375;48.540;9.268;2023-08-21T09:53:05;10.93;;;9.87;;
1344;SDS011;15375;48.540;9.268;2023-08-21T09:55:33;10.50;;;9.63;;
1344;SDS011;15375;48.540;9.268;2023-08-21T09:57:58;10.70;;;9.80;;
1344;SDS011;15375;48.540;9.268;2023-08-21T10:00:31;12.13;;;10.73;;
1344;SDS011;15375;48.540;9.268;2023-08-21T10:03:02;11.57;;;10.67;;
1344;SDS011;15375;48.540;9.268;2023-08-21T10:05:29;10.17;;;9.40;;
1344;SDS011;15375;48.540;9.268;2023-08-21T10:07:56;11.70;;;10.60;;
1344;SDS011;15375;48.540;9.268;2023-08-21T10:10:25;11.50;;;10.50;;
1344;SDS011;15375;48.540;9.268;2023-08-21T10:12:51;10.80;;;10.00;;
1344;SDS011;15375;48.540;9.268;2023-08-21T10:15:16;11.83;;;10.63;;
1344;SDS011;15375;48.540;9.268;2023-08-21T10:17:42;11.30;;;10.40;;
1344;SDS011;15375;48.540;9.268;2023-08-21T10:20:08;10.80;;;9.90;;
1344;SDS011;15375;48.540;9.268;2023-08-21T10:22:44;12.00;;;10.90;;
1344;SDS011;15375;48.540;9.268;2023-08-21T10:25:15;12.27;;;9.93;;
1344;SDS011;15375;48.540;9.268;2023-08-21T10:28:01;11.67;;;10.40;;
1344;SDS011;15375;48.540;9.268;2023-08-21T10:30:28;10.07;;;9.30;;
1344;SDS011;15375;48.540;9.268;2023-08-21T10:32:55;11.33;;;10.43;;
1344;SDS011;15375;48.540;9.268;2023-08-21T10:35:28;12.80;;;9.93;;
1344;SDS011;15375;48.540;9.268;2023-08-21T10:38:05;10.60;;;9.70;;
1344;SDS011;15375;48.540;9.268;2023-08-21T10:41:03;11.23;;;10.23;;
1344;SDS011;15375;48.540;9.268;2023-08-21T10:46:09;14.13;;;11.40;;
1344;SDS011;15375;48.540;9.268;2023-08-21T10:48:35;10.50;;;9.70;;
1344;SDS011;15375;48.540;9.268;2023-08-21T10:51:02;10.60;;;9.80;;
1344;SDS011;15375;48.540;9.268;2023-08-21T10:53:32;11.07;;;10.20;;
1344;SDS011;15375;48.540;9.268;2023-08-21T10:56:04;10.83;;;9.73;;
1344;SDS011;15375;48.540;9.268;2023-08-21T10:58:43;10.73;;;9.87;;
1344;SDS011;15375;48.540;9.268;2023-08-21T11:01:12;10.70;;;9.80;;
1344;SDS011;15375;48.540;9.268;2023-08-21T11:03:39;10.53;;;9.60;;
1344;SDS011;15375;48.540;9.268;2023-08-21T11:06:08;10.77;;;9.90;;
1344;SDS011;15375;48.540;9.268;2023-08-21T11:08:35;11.43;;;10.30;;
1344;SDS011;15375;48.540;9.268;2023-08-21T11:11:01;10.20;;;9.40;;
1344;SDS011;15375;48.540;9.268;2023-08-21T11:13:28;10.20;;;9.40;;
1344;SDS011;15375;48.540;9.268;2023-08-21T11:15:58;9.80;;;9.10;;
1344;SDS011;15375;48.540;9.268;2023-08-21T11:18:34;10.27;;;9.37;;
1344;SDS011;15375;48.540;9.268;2023-08-21T11:21:07;12.20;;;11.07;;
1344;SDS011;15375;48.540;9.268;2023-08-21T11:23:37;10.97;;;10.03;;
1344;SDS011;15375;48.540;9.268;2023-08-21T11:26:04;11.23;;;10.23;;
1344;SDS011;15375;48.540;9.268;2023-08-21T11:28:30;11.10;;;10.00;;
1344;SDS011;15375;48.540;9.268;2023-08-21T11:30:57;11.43;;;10.17;;
1344;SDS011;15375;48.540;9.268;2023-08-21T11:33:23;11.63;;;10.30;;
1344;SDS011;15375;48.540;9.268;2023-08-21T11:35:48;10.83;;;9.93;;
1344;SDS011;15375;48.540;9.268;2023-08-21T11:38:18;10.60;;;9.80;;
1344;SDS011;15375;48.540;9.268;2023-08-21T11:40:58;9.80;;;9.00;;
1344;SDS011;15375;48.540;9.268;2023-08-21T11:43:46;10.80;;;9.90;;
1344;SDS011;15375;48.540;9.268;2023-08-21T11:46:10;11.13;;;10.10;;
1344;SDS011;15375;48.540;9.268;2023-08-21T11:48:39;10.70;;;9.90;;
1344;SDS011;15375;48.540;9.268;2023-08-21T11:51:07;10.03;;;9.20;;
1344;SDS011;15375;48.540;9.268;2023-08-21T11:53:37;11.00;;;9.93;;
1344;SDS011;15375;48.540;9.268;2023-08-21T11:56:12;10.50;;;9.70;;
1344;SDS011;15375;48.540;9.268;2023-08-21T11:58:39;10.23;;;9.53;;
1344;SDS011;15375;48.540;9.268;2023-08-21T12:01:05;11.63;;;10.40;;
1344;SDS011;15375;48.540;9.268;2023-08-21T12:03:35;10.37;;;9.57;;
1344;SDS011;15375;48.540;9.268;2023-08-21T12:06:04;11.03;;;10.07;;
1344;SDS011;15375;48.540;9.268;2023-08-21T12:08:33;11.43;;;10.20;;
1344;SDS011;15375;48.540;9.268;2023-08-21T12:10:59;10.40;;;9.50;;
1344;SDS011;15375;48.540;9.268;2023-08-21T12:13:24;11.90;;;10.70;;
1344;SDS011;15375;48.540;9.268;2023-08-21T12:15:50;10.97;;;9.83;;
1344;SDS011;15375;48.540;9.268;2023-08-21T12:18:15;10.60;;;9.80;;
1344;SDS011;15375;48.540;9.268;2023-08-21T12:20:41;11.33;;;10.47;;
1344;SDS011;15375;48.540;9.268;2023-08-21T12:23:06;11.87;;;9.67;;
1344;SDS011;15375;48.540;9.268;2023-08-21T12:25:31;11.60;;;10.43;;
1344;SDS011;15375;48.540;9.268;2023-08-21T12:27:57;10.70;;;9.60;;
1344;SDS011;15375;48.540;9.268;2023-08-21T12:30:22;12.90;;;11.70;;
1344;SDS011;15375;48.540;9.268;2023-08-21T12:32:48;11.17;;;10.07;;
1344;SDS011;15375;48.540;9.268;2023-08-21T12:35:13;10.90;;;10.00;;
1344;SDS011;15375;48.540;9.268;2023-08-21T12:37:38;10.20;;;9.27;;
1344;SDS011;15375;48.540;9.268;2023-08-21T12:40:04;10.27;;;9.37;;
1344;SDS011;15375;48.540;9.268;2023-08-21T12:42:30;10.50;;;9.70;;
1344;SDS011;15375;48.540;9.268;2023-08-21T12:44:55;14.30;;;11.13;;
1344;SDS011;15375;48.540;9.268;2023-08-21T12:47:20;12.33;;;10.30;;
1344;SDS011;15375;48.540;9.268;2023-08-21T12:49:46;11.73;;;10.73;;
1344;SDS011;15375;48.540;9.268;2023-08-21T12:52:12;11.93;;;10.83;;
1344;SDS011;15375;48.540;9.268;2023-08-21T12:54:38;11.53;;;10.37;;
1344;SDS011;15375;48.540;9.268;2023-08-21T12:57:04;11.70;;;10.77;;
1344;SDS011;15375;48.540;9.268;2023-08-21T12:59:30;10.50;;;9.77;;
1344;SDS011;15375;48.540;9.268;2023-08-21T13:01:55;11.73;;;10.87;;
1344;SDS011;15375;48.540;9.268;2023-08-21T13:04:21;15.17;;;10.23;;
1344;SDS011;15375;48.540;9.268;2023-08-21T13:06:46;10.63;;;9.50;;
1344;SDS011;15375;48.540;9.268;2023-08-21T13:09:11;13.27;;;10.10;;
1344;SDS011;15375;48.540;9.268;2023-08-21T13:11:37;12.70;;;11.63;;
1344;SDS011;15375;48.540;9.268;2023-08-21T13:14:02;11.60;;;10.70;;
1344;SDS011;15375;48.540;9.268;2023-08-21T13:16:28;11.93;;;11.03;;
1344;SDS011;15375;48.540;9.268;2023-08-21T13:18:54;11.07;;;10.20;;
1344;SDS011;15375;48.540;9.268;2023-08-21T13:21:19;11.67;;;10.67;;
1344;SDS011;15375;48.540;9.268;2023-08-21T13:23:44;11.90;;;10.83;;
1344;SDS011;15375;48.540;9.268;2023-08-21T13:26:10;11.30;;;10.40;;
1344;SDS011;15375;48.540;9.268;2023-08-21T13:28:35;10.67;;;9.87;;
1344;SDS011;15375;48.540;9.268;2023-08-21T13:31:00;10.43;;;9.53;;
1344;SDS011;15375;48.540;9.268;2023-08-21T13:33:26;12.87;;;11.17;;
1344;SDS011;15375;48.540;9.268;2023-08-21T13:35:51;10.90;;;9.93;;
1344;SDS011;15375;48.540;9.268;2023-08-21T13:38:17;11.27;;;10.10;;
1344;SDS011;15375;48.540;9.268;2023-08-21T13:40:42;10.60;;;9.70;;
1344;SDS011;15375;48.540;9.268;2023-08-21T13:43:07;11.70;;;10.60;;
1344;SDS011;15375;48.540;9.268;2023-08-21T13:45:35;10.17;;;9.23;;
1344;SDS011;15375;48.540;9.268;2023-08-21T13:48:01;11.63;;;10.50;;
1344;SDS011;15375;48.540;9.268;2023-08-21T13:50:29;10.53;;;9.53;;
1344;SDS011;15375;48.540;9.268;2023-08-21T13:52:54;9.80;;;8.80;;
1344;SDS011;15375;48.540;9.268;2023-08-21T13:55:20;10.37;;;9.57;;
1344;SDS011;15375;48.540;9.268;2023-08-21T13:57:46;9.87;;;9.07;;
1344;SDS011;15375;48.540;9.268;2023-08-21T14:00:12;10.80;;;10.00;;
1344;SDS011;15375;48.540;9.268;2023-08-21T14:02:38;9.83;;;9.00;;
1344;SDS011;15375;48.540;9.268;2023-08-21T14:05:05;10.73;;;9.80;;
1344;SDS011;15375;48.540;9.268;2023-08-21T14:07:32;10.17;;;9.03;;
1344;SDS011;15375;48.540;9.268;2023-08-21T14:09:58;9.67;;;8.77;;
1344;SDS011;15375;48.540;9.268;2023-08-21T14:12:24;8.87;;;8.10;;
1344;SDS011;15375;48.540;9.268;2023-08-21T14:14:49;9.43;;;8.10;;
1344;SDS011;15375;48.540;9.268;2023-08-21T14:17:15;9.43;;;8.40;;
1344;SDS011;15375;48.540;9.268;2023-08-21T14:19:41;10.27;;;9.23;;
1344;SDS011;15375;48.540;9.268;2023-08-21T14:22:06;8.70;;;8.00;;
1344;SDS011;15375;48.540;9.268;2023-08-21T14:24:32;9.17;;;8.17;;
1344;SDS011;15375;48.540;9.268;2023-08-21T14:26:57;8.87;;;7.97;;
1344;SDS011;15375;48.540;9.268;2023-08-21T14:29:23;8.87;;;8.03;;
1344;SDS011;15375;48.540;9.268;2023-08-21T14:31:48;9.53;;;8.63;;
1344;SDS011;15375;48.540;9.268;2023-08-21T14:34:14;9.67;;;8.77;;
1344;SDS011;15375;48.540;9.268;2023-08-21T14:36:41;9.37;;;8.50;;
1344;SDS011;15375;48.540;9.268;2023-08-21T14:39:07;9.80;;;9.00;;
1344;SDS011;15375;48.540;9.268;2023-08-21T14:41:35;8.83;;;8.13;;